Time;durP1;ratioP1;P1;durP2;ratioP2;P2;SDS_P1;SDS_P2;PMS_P1;PMS_P2;Temp;Humidity;BMP_temperature;BMP_pressure;BME280_temperature;BME280_humidity;BME280_pressure;Samples;Min_cycle;Max_cycle;Signal;HPM_P1;HPM_P2
2021/10/05 00:00:43;;;;;;;12.40;1.90;;;16.50;99.90;;;;;;6127458;23;20049;-93
2021/10/05 00:03:08;;;;;;;13.60;1.45;;;16.50;99.90;;;;;;6127843;23;20016;-92
2021/10/05 00:05:34;;;;;;;17.90;2.60;;;16.50;99.90;;;;;;6127198;23;20028;-93
2021/10/05 00:08:00;;;;;;;23.05;3.13;;;16.50;99.90;;;;;;6128921;23;20006;-94
2021/10/05 00:10:26;;;;;;;13.68;2.75;;;16.50;99.90;;;;;;6129312;23;20024;-93
2021/10/05 00:12:52;;;;;;;14.85;2.00;;;16.50;99.90;;;;;;6155612;23;20005;-93
2021/10/05 00:15:19;;;;;;;16.60;2.15;;;16.60;99.90;;;;;;6129207;23;20005;-93
2021/10/05 00:17:45;;;;;;;22.65;3.60;;;16.60;99.90;;;;;;6129463;23;20097;-94
2021/10/05 00:20:12;;;;;;;17.58;2.47;;;16.60;99.90;;;;;;6129682;23;20056;-93
2021/10/05 00:22:39;;;;;;;19.95;4.07;;;16.60;99.90;;;;;;6129388;23;20432;-94
2021/10/05 00:25:05;;;;;;;16.52;2.55;;;16.60;99.90;;;;;;6128511;23;20260;-92
2021/10/05 00:27:31;;;;;;;17.75;2.22;;;16.70;99.90;;;;;;6129018;23;20012;-93
2021/10/05 00:29:57;;;;;;;25.13;2.90;;;16.70;99.90;;;;;;6128540;23;20009;-92
2021/10/05 00:32:23;;;;;;;22.15;2.00;;;16.70;99.90;;;;;;6128646;23;20009;-93
2021/10/05 00:34:50;;;;;;;14.80;1.88;;;16.70;99.90;;;;;;6128504;23;20026;-92
2021/10/05 00:37:16;;;;;;;26.85;3.03;;;16.70;99.90;;;;;;6128218;23;20002;-91
2021/10/05 00:39:42;;;;;;;22.73;1.92;;;16.60;99.90;;;;;;6128598;23;20056;-90
2021/10/05 00:42:08;;;;;;;17.00;2.22;;;16.60;99.90;;;;;;6153864;23;20005;-90
2021/10/05 00:44:35;;;;;;;20.08;2.90;;;16.60;99.90;;;;;;6128248;23;20036;-93
2021/10/05 00:47:13;;;;;;;14.52;1.80;;;16.60;99.90;;;;;;6127822;23;20013;-92
2021/10/05 00:49:40;;;;;;;27.05;2.83;;;16.60;99.90;;;;;;6128112;23;20093;-92
2021/10/05 00:52:09;;;;;;;16.40;2.47;;;16.70;99.90;;;;;;6154278;23;20006;-92
2021/10/05 00:54:36;;;;;;;16.73;2.78;;;16.70;99.90;;;;;;6128482;23;20426;-91
2021/10/05 00:57:02;;;;;;;16.58;2.97;;;16.70;99.90;;;;;;6128165;23;20457;-92
2021/10/05 00:59:30;;;;;;;23.38;2.83;;;16.70;99.90;;;;;;6127639;23;20001;-90
2021/10/05 01:01:56;;;;;;;26.48;3.35;;;16.80;99.90;;;;;;6127788;23;20006;-91
2021/10/05 01:04:22;;;;;;;20.35;3.03;;;16.80;99.90;;;;;;6127713;23;20011;-91
2021/10/05 01:06:58;;;;;;;10.45;2.50;;;16.70;99.90;;;;;;6154249;23;20006;-92
2021/10/05 01:46:50;;;;;;;20.05;2.38;;;16.50;99.90;;;;;;6182145;23;20476;-86
2021/10/05 01:49:17;;;;;;;24.48;3.22;;;16.40;99.90;;;;;;6181744;23;20377;-86
2021/10/05 01:51:43;;;;;;;18.27;3.00;;;16.40;99.90;;;;;;6156148;23;20013;-86
2021/10/05 01:54:10;;;;;;;21.50;3.17;;;16.30;99.90;;;;;;6182783;23;20429;-86
2021/10/05 01:56:36;;;;;;;17.65;3.05;;;16.30;99.90;;;;;;6182271;23;20122;-86
2021/10/05 01:59:02;;;;;;;17.90;2.10;;;16.30;99.90;;;;;;6182797;23;19997;-87
2021/10/05 02:01:28;;;;;;;17.13;2.90;;;16.40;99.90;;;;;;6182839;23;20005;-86
2021/10/05 02:03:53;;;;;;;22.80;2.58;;;16.40;99.90;;;;;;6182609;23;20005;-87
2021/10/05 02:06:19;;;;;;;17.73;2.05;;;16.50;99.90;;;;;;6182709;23;20389;-86
2021/10/05 02:08:45;;;;;;;24.90;3.53;;;16.40;99.90;;;;;;6182587;23;20001;-86
2021/10/05 02:11:11;;;;;;;29.45;2.67;;;16.40;99.90;;;;;;6182520;23;20087;-86
2021/10/05 02:13:36;;;;;;;21.38;2.80;;;16.40;99.90;;;;;;6182415;23;20004;-87
2021/10/05 02:16:03;;;;;;;17.17;2.17;;;16.30;99.90;;;;;;6182453;23;20218;-87
2021/10/05 02:18:29;;;;;;;23.83;2.75;;;16.30;99.90;;;;;;6155835;23;20039;-87
2021/10/05 02:20:55;;;;;;;21.77;2.88;;;16.30;99.90;;;;;;6182309;23;20004;-87
2021/10/05 02:23:21;;;;;;;24.05;2.25;;;16.30;99.90;;;;;;6182355;23;20001;-85
2021/10/05 02:25:47;;;;;;;20.27;2.38;;;16.30;99.90;;;;;;6155857;23;20342;-85
2021/10/05 02:28:13;;;;;;;17.90;3.28;;;16.30;99.90;;;;;;6182366;23;19997;-86
2021/10/05 02:30:38;;;;;;;26.20;3.22;;;16.20;99.90;;;;;;6181690;23;20024;-85
2021/10/05 02:33:04;;;;;;;24.85;3.47;;;16.30;99.90;;;;;;6182320;23;20402;-85
2021/10/05 02:35:30;;;;;;;18.20;2.88;;;16.30;99.90;;;;;;6182304;23;20076;-85
2021/10/05 02:37:55;;;;;;;26.48;3.13;;;16.30;99.90;;;;;;6182876;23;19997;-84
2021/10/05 02:40:21;;;;;;;32.35;3.83;;;16.30;99.90;;;;;;6182194;23;20501;-84
2021/10/05 02:42:47;;;;;;;35.83;3.67;;;16.30;99.90;;;;;;6182284;23;20005;-83
2021/10/05 02:45:13;;;;;;;29.10;3.70;;;16.30;99.90;;;;;;6182318;23;20001;-84
2021/10/05 02:47:39;;;;;;;30.95;4.32;;;16.30;99.90;;;;;;6181520;23;20024;-83
2021/10/05 02:50:06;;;;;;;34.42;4.32;;;16.30;99.90;;;;;;6181998;23;20350;-83
2021/10/05 02:52:31;;;;;;;23.10;3.63;;;16.30;99.90;;;;;;6181615;23;20449;-84
2021/10/05 02:54:57;;;;;;;29.52;4.00;;;16.20;99.90;;;;;;6155379;23;20005;-84
2021/10/05 02:57:23;;;;;;;30.58;3.33;;;16.20;99.90;;;;;;6181909;23;20389;-83
2021/10/05 02:59:49;;;;;;;35.10;4.03;;;16.20;99.90;;;;;;6182135;23;20001;-83
2021/10/05 03:02:15;;;;;;;32.95;4.43;;;16.20;99.90;;;;;;6181861;23;20061;-83
2021/10/05 03:04:41;;;;;;;29.10;3.88;;;16.20;99.90;;;;;;6182027;23;20001;-83
2021/10/05 03:07:08;;;;;;;25.00;2.88;;;16.20;99.90;;;;;;6181827;23;20388;-83
2021/10/05 03:09:34;;;;;;;29.02;3.63;;;16.20;99.90;;;;;;6181909;23;20005;-83
2021/10/05 03:12:01;;;;;;;33.67;4.18;;;16.20;99.90;;;;;;6181946;23;20009;-82
2021/10/05 03:14:27;;;;;;;22.17;3.50;;;16.20;99.90;;;;;;6181900;23;20516;-82
2021/10/05 03:16:53;;;;;;;25.10;3.70;;;16.20;99.90;;;;;;6182269;23;20000;-83
2021/10/05 03:19:18;;;;;;;25.17;3.03;;;16.20;99.90;;;;;;6181427;23;20390;-83
2021/10/05 03:21:44;;;;;;;24.55;3.17;;;16.20;99.90;;;;;;6182199;23;20414;-83
2021/10/05 03:24:10;;;;;;;27.65;3.13;;;16.20;99.90;;;;;;6181920;23;20442;-83
2021/10/05 03:26:37;;;;;;;35.17;4.90;;;16.20;99.90;;;;;;6181691;23;19997;-83
2021/10/05 03:29:04;;;;;;;27.85;3.88;;;16.20;99.90;;;;;;6181802;23;20005;-83
2021/10/05 03:31:30;;;;;;;38.63;5.45;;;16.20;99.90;;;;;;6181500;23;20437;-82
2021/10/05 03:33:56;;;;;;;37.28;4.63;;;16.30;99.90;;;;;;6155269;23;20005;-82
2021/10/05 03:36:22;;;;;;;34.20;4.10;;;16.30;99.90;;;;;;6181922;23;20492;-82
2021/10/05 03:38:47;;;;;;;36.60;3.78;;;16.20;99.90;;;;;;6182013;23;20353;-82
2021/10/05 03:41:14;;;;;;;38.30;4.70;;;16.20;99.90;;;;;;6155072;23;20080;-84
2021/10/05 03:43:40;;;;;;;30.60;3.90;;;16.30;99.90;;;;;;6181436;23;20065;-83
2021/10/05 03:46:07;;;;;;;33.72;4.32;;;16.20;99.90;;;;;;6181748;23;20001;-83
2021/10/05 03:48:33;;;;;;;42.58;3.80;;;16.20;99.90;;;;;;6181251;23;20039;-83
2021/10/05 03:51:00;;;;;;;30.45;3.97;;;16.20;99.90;;;;;;6181652;23;20069;-82
2021/10/05 03:53:25;;;;;;;28.55;3.40;;;16.10;99.90;;;;;;6181427;23;19997;-83
2021/10/05 03:55:56;;;;;;;35.95;5.40;;;16.10;99.90;;;;;;6181559;23;20008;-83
2021/10/05 03:58:24;;;;;;;36.75;5.15;;;16.10;99.90;;;;;;6181761;23;20001;-83
2021/10/05 04:00:50;;;;;;;35.22;3.80;;;16.10;99.90;;;;;;6181405;23;20005;-83
2021/10/05 04:03:17;;;;;;;30.00;4.20;;;16.10;99.90;;;;;;6181604;23;19997;-84
2021/10/05 04:05:43;;;;;;;26.35;3.15;;;16.00;99.90;;;;;;6181668;23;20008;-83
2021/10/05 04:08:11;;;;;;;29.60;4.30;;;16.00;99.90;;;;;;6181311;23;20032;-84
2021/10/05 04:10:38;;;;;;;27.58;4.82;;;15.90;99.90;;;;;;6181459;23;20016;-84
2021/10/05 04:13:04;;;;;;;22.08;3.13;;;15.90;99.90;;;;;;6181918;23;20001;-83
2021/10/05 04:15:30;;;;;;;26.85;4.38;;;15.90;99.90;;;;;;6181289;23;20009;-83
2021/10/05 04:17:56;;;;;;;24.75;2.80;;;15.90;99.90;;;;;;6181460;23;20005;-83
2021/10/05 04:20:22;;;;;;;21.77;3.20;;;15.90;99.90;;;;;;6181507;23;20001;-83
2021/10/05 04:22:48;;;;;;;31.10;3.30;;;15.80;99.90;;;;;;6181715;23;20006;-83
2021/10/05 04:25:13;;;;;;;20.67;2.55;;;15.80;99.90;;;;;;6181599;23;20005;-84
2021/10/05 04:27:39;;;;;;;17.27;2.55;;;15.70;99.90;;;;;;6154939;23;20469;-84
2021/10/05 04:30:10;;;;;;;11.68;2.20;;;15.60;99.90;;;;;;6181478;23;20005;-83
2021/10/05 04:32:36;;;;;;;17.40;3.00;;;15.50;99.90;;;;;;6180804;23;20016;-84
2021/10/05 04:35:03;;;;;;;17.55;3.47;;;15.50;99.90;;;;;;6181656;23;20370;-84
2021/10/05 04:37:29;;;;;;;20.90;2.75;;;15.50;99.90;;;;;;6181195;23;20016;-83
2021/10/05 04:39:55;;;;;;;15.68;2.72;;;15.50;99.90;;;;;;6156223;23;20341;-83
2021/10/05 04:42:20;;;;;;;26.63;3.38;;;15.50;99.90;;;;;;6186551;23;20063;-83
2021/10/05 04:44:46;;;;;;;27.27;3.00;;;15.50;99.90;;;;;;6183281;23;20002;-83
2021/10/05 04:47:12;;;;;;;26.90;3.10;;;15.60;99.90;;;;;;6183219;23;20008;-83
2021/10/05 04:49:37;;;;;;;22.85;4.05;;;15.50;99.90;;;;;;6154670;23;20013;-83
2021/10/05 04:52:04;;;;;;;25.40;3.58;;;15.50;99.90;;;;;;6181182;23;20013;-84
2021/10/05 04:54:30;;;;;;;23.83;2.90;;;15.50;99.90;;;;;;6181921;23;20023;-84
2021/10/05 04:56:56;;;;;;;22.13;3.03;;;15.50;99.90;;;;;;6183123;23;20009;-84
2021/10/05 04:59:23;;;;;;;22.73;3.50;;;15.60;99.90;;;;;;6183240;23;20373;-84
2021/10/05 05:01:49;;;;;;;21.55;2.90;;;15.60;99.90;;;;;;6183268;23;20005;-84
2021/10/05 05:04:16;;;;;;;17.00;2.38;;;15.60;99.90;;;;;;6156718;23;20021;-84
2021/10/05 05:06:43;;;;;;;24.40;3.33;;;15.50;99.90;;;;;;6183100;23;20001;-84
2021/10/05 05:09:09;;;;;;;24.75;4.13;;;15.50;99.90;;;;;;6182966;23;19997;-84
2021/10/05 05:11:35;;;;;;;26.90;3.30;;;15.50;99.90;;;;;;6182922;23;20020;-84
2021/10/05 05:14:34;;;;;;;27.13;3.58;;;15.50;99.90;;;;;;6182838;23;20001;-84
2021/10/05 05:16:53;;;;;;;17.55;2.65;;;15.50;99.90;;;;;;6177888;23;20005;-84
2021/10/05 05:19:18;;;;;;;21.60;2.95;;;15.50;99.90;;;;;;6183020;23;20075;-86
2021/10/05 05:21:45;;;;;;;23.42;3.45;;;15.50;99.90;;;;;;6156678;23;20262;-84
2021/10/05 05:24:11;;;;;;;28.88;3.22;;;15.50;99.90;;;;;;6182973;23;20034;-85
2021/10/05 05:26:37;;;;;;;22.17;3.55;;;15.50;99.90;;;;;;6182713;23;19997;-85
2021/10/05 05:29:02;;;;;;;25.40;3.15;;;15.50;99.90;;;;;;6183130;23;20456;-87
2021/10/05 05:31:28;;;;;;;31.73;3.85;;;15.50;99.90;;;;;;6182700;23;20334;-85
2021/10/05 05:33:54;;;;;;;28.75;3.95;;;15.50;99.90;;;;;;6182827;23;20002;-87
2021/10/05 05:36:19;;;;;;;30.50;4.65;;;15.50;99.90;;;;;;6182355;23;20012;-87
2021/10/05 05:38:46;;;;;;;22.77;3.20;;;15.50;99.90;;;;;;6182369;23;20381;-86
2021/10/05 05:41:12;;;;;;;15.90;2.65;;;15.40;99.90;;;;;;6182199;23;20027;-86
2021/10/05 05:43:37;;;;;;;21.77;2.85;;;15.40;99.90;;;;;;6182769;23;20388;-86
2021/10/05 05:46:03;;;;;;;20.73;2.67;;;15.40;99.90;;;;;;6182857;23;20362;-87
2021/10/05 05:48:28;;;;;;;18.02;2.45;;;15.30;99.90;;;;;;6182757;23;20009;-88
2021/10/05 05:50:54;;;;;;;19.90;2.72;;;15.40;99.90;;;;;;6182916;23;20445;-87
2021/10/05 05:53:20;;;;;;;21.38;2.92;;;15.30;99.90;;;;;;6182898;23;20024;-86
2021/10/05 05:55:46;;;;;;;20.50;2.60;;;15.30;99.90;;;;;;6182985;23;20079;-88
2021/10/05 05:58:14;;;;;;;21.65;3.33;;;15.30;99.90;;;;;;6182933;23;20005;-88
2021/10/05 06:00:42;;;;;;;33.35;3.85;;;15.30;99.90;;;;;;6182650;23;20418;-87
2021/10/05 06:03:08;;;;;;;37.78;4.78;;;15.40;99.90;;;;;;6156333;23;20005;-90
2021/10/05 06:05:34;;;;;;;26.90;4.57;;;15.40;99.90;;;;;;6182614;23;20331;-85
2021/10/05 06:08:01;;;;;;;22.60;3.25;;;15.40;99.90;;;;;;6182348;23;20374;-84
2021/10/05 06:10:26;;;;;;;21.08;2.47;;;15.30;99.90;;;;;;6182246;23;20080;-85
2021/10/05 06:12:53;;;;;;;37.00;3.60;;;15.20;99.90;;;;;;6182315;23;20086;-85
2021/10/05 06:15:20;;;;;;;36.97;5.25;;;15.20;99.90;;;;;;6182539;23;20001;-86
2021/10/05 06:17:47;;;;;;;32.63;3.97;;;15.20;99.90;;;;;;6155632;23;20402;-84
2021/10/05 06:20:15;;;;;;;29.42;4.40;;;15.20;99.90;;;;;;6182428;23;20072;-85
2021/10/05 06:22:41;;;;;;;40.08;5.68;;;15.20;99.90;;;;;;6182319;23;20076;-85
2021/10/05 06:25:11;;;;;;;55.42;5.25;;;15.20;99.90;;;;;;6182334;23;20025;-85
2021/10/05 06:27:36;;;;;;;51.00;5.60;;;15.30;99.90;;;;;;6182002;23;20040;-86
2021/10/05 06:30:06;;;;;;;45.67;4.45;;;15.20;99.90;;;;;;6182440;23;20001;-86
2021/10/05 06:32:32;;;;;;;41.25;4.75;;;15.20;99.90;;;;;;6165537;23;20020;-87
2021/10/05 06:34:58;;;;;;;37.30;5.05;;;15.20;99.90;;;;;;6197876;23;19997;-88
2021/10/05 06:37:23;;;;;;;37.90;5.28;;;15.20;99.90;;;;;;6175660;23;20052;-89
2021/10/05 06:39:49;;;;;;;37.85;6.13;;;15.10;99.90;;;;;;6182212;23;20001;-90
2021/10/05 06:42:15;;;;;;;41.08;4.55;;;15.20;99.90;;;;;;6179698;23;20036;-91
2021/10/05 06:44:41;;;;;;;42.30;5.22;;;15.20;99.90;;;;;;6157475;23;20011;-92
2021/10/05 06:47:07;;;;;;;34.10;4.65;;;15.20;99.90;;;;;;6156716;23;20397;-91
2021/10/05 06:49:33;;;;;;;30.35;4.20;;;15.20;99.90;;;;;;6156621;23;20005;-89
2021/10/05 06:52:00;;;;;;;32.47;4.88;;;15.20;99.90;;;;;;6156735;23;20286;-90
2021/10/05 06:54:26;;;;;;;36.38;4.38;;;15.30;99.90;;;;;;6183134;23;20001;-91
2021/10/05 06:56:52;;;;;;;33.55;4.68;;;15.40;99.90;;;;;;6156296;23;20433;-91
2021/10/05 06:59:17;;;;;;;31.48;4.30;;;15.40;99.90;;;;;;6156553;23;20001;-91
2021/10/05 07:01:43;;;;;;;33.90;4.57;;;15.50;99.90;;;;;;6156697;23;20036;-90
2021/10/05 07:04:10;;;;;;;27.38;4.65;;;15.50;99.90;;;;;;6156621;23;20085;-90
2021/10/05 07:06:37;;;;;;;42.22;5.32;;;15.50;99.90;;;;;;6157134;23;20043;-91
2021/10/05 07:09:07;;;;;;;42.20;5.32;;;15.60;99.90;;;;;;6156634;23;20084;-93
2021/10/05 07:11:34;;;;;;;38.90;5.60;;;15.70;99.90;;;;;;6156771;23;20012;-91
2021/10/05 07:14:00;;;;;;;32.13;4.40;;;15.60;99.90;;;;;;6156613;23;20005;-93
2021/10/05 07:16:26;;;;;;;23.60;3.90;;;15.50;99.90;;;;;;6156130;23;20028;-92
2021/10/05 07:18:52;;;;;;;19.95;3.22;;;15.50;99.90;;;;;;6156844;23;20391;-90
2021/10/05 07:21:18;;;;;;;23.27;3.63;;;15.40;99.90;;;;;;6156300;23;20012;-91
2021/10/05 07:23:44;;;;;;;28.17;3.80;;;15.40;99.90;;;;;;6156194;23;20032;-92
2021/10/05 07:26:10;;;;;;;17.67;4.00;;;15.40;99.90;;;;;;6156378;23;20089;-90
2021/10/05 07:28:36;;;;;;;25.90;3.65;;;15.40;99.90;;;;;;6156392;23;20025;-92
2021/10/05 07:31:01;;;;;;;25.40;3.20;;;15.40;99.90;;;;;;6155956;23;20458;-90
2021/10/05 07:33:28;;;;;;;17.83;3.38;;;15.40;99.90;;;;;;6156142;23;20017;-90
2021/10/05 07:35:54;;;;;;;20.50;3.00;;;15.50;99.90;;;;;;6156014;23;20019;-90
2021/10/05 07:38:20;;;;;;;18.80;2.83;;;15.60;99.90;;;;;;6182283;23;20052;-88
2021/10/05 07:40:46;;;;;;;18.73;3.00;;;15.60;99.90;;;;;;6182211;23;20005;-89
2021/10/05 07:43:11;;;;;;;18.70;2.60;;;15.70;99.90;;;;;;6182365;23;19997;-89
2021/10/05 07:45:38;;;;;;;23.33;3.15;;;15.80;99.90;;;;;;6156359;23;20005;-89
2021/10/05 07:48:04;;;;;;;25.98;4.28;;;15.80;99.90;;;;;;6181672;23;20460;-89
2021/10/05 07:50:32;;;;;;;21.80;3.05;;;15.90;99.90;;;;;;6182134;23;20017;-89
2021/10/05 07:52:59;;;;;;;21.63;3.22;;;16.00;99.90;;;;;;6182435;23;20009;-89
2021/10/05 07:55:25;;;;;;;17.95;2.90;;;16.10;99.90;;;;;;6155619;23;20559;-89
2021/10/05 07:57:50;;;;;;;23.30;4.00;;;16.10;99.90;;;;;;6181891;23;20032;-89
2021/10/05 08:00:16;;;;;;;22.13;3.10;;;16.10;99.90;;;;;;6181580;23;20001;-88
2021/10/05 08:02:44;;;;;;;26.48;3.95;;;16.10;99.90;;;;;;6155351;23;20005;-87
2021/10/05 08:05:12;;;;;;;22.02;3.30;;;16.10;99.90;;;;;;6155780;23;20468;-88
2021/10/05 08:07:39;;;;;;;23.40;3.60;;;16.20;99.90;;;;;;6181785;23;20526;-88
2021/10/05 08:10:05;;;;;;;26.23;3.78;;;16.20;99.90;;;;;;6155435;23;20001;-87
2021/10/05 08:12:31;;;;;;;24.92;4.22;;;16.10;99.90;;;;;;6181906;23;20048;-87
2021/10/05 08:14:57;;;;;;;32.58;3.40;;;16.10;99.90;;;;;;6181592;23;19998;-86
2021/10/05 08:17:23;;;;;;;27.13;3.92;;;16.00;99.90;;;;;;6181496;23;20056;-87
2021/10/05 08:19:48;;;;;;;36.03;4.97;;;15.90;99.90;;;;;;6181713;23;20350;-86
2021/10/05 08:22:16;;;;;;;23.13;3.55;;;15.90;99.90;;;;;;6181765;23;19997;-87
2021/10/05 08:24:42;;;;;;;22.58;3.53;;;16.00;99.90;;;;;;6182115;23;20012;-86
2021/10/05 08:27:07;;;;;;;22.15;2.83;;;16.20;99.90;;;;;;6181873;23;20076;-87
2021/10/05 08:29:37;;;;;;;36.40;4.03;;;16.40;99.90;;;;;;6182744;23;20005;-86
2021/10/05 08:32:04;;;;;;;24.77;3.03;;;16.60;99.90;;;;;;6183321;23;20468;-86
2021/10/05 08:34:30;;;;;;;22.85;3.10;;;16.80;99.90;;;;;;6157087;23;20001;-86
2021/10/05 08:36:55;;;;;;;19.10;3.05;;;16.90;99.90;;;;;;6156782;23;20005;-86
2021/10/05 08:39:21;;;;;;;24.88;4.32;;;17.00;99.90;;;;;;6183211;23;20072;-86
2021/10/05 08:41:47;;;;;;;37.17;5.00;;;16.90;99.90;;;;;;6157285;23;20057;-86
2021/10/05 08:44:15;;;;;;;19.98;2.80;;;16.80;99.90;;;;;;6183204;23;20001;-87
2021/10/05 08:46:42;;;;;;;28.60;4.90;;;16.60;99.90;;;;;;6183363;23;20091;-87
2021/10/05 08:49:08;;;;;;;21.27;2.97;;;16.30;99.90;;;;;;6156856;23;20028;-88
2021/10/05 08:51:37;;;;;;;26.27;3.83;;;16.00;99.90;;;;;;6157000;23;20040;-89
2021/10/05 08:54:03;;;;;;;40.00;5.22;;;15.60;99.90;;;;;;6183655;23;20028;-89
2021/10/05 08:56:28;;;;;;;22.13;3.97;;;15.40;99.90;;;;;;6157032;23;20004;-89
2021/10/05 08:58:54;;;;;;;16.48;3.20;;;15.40;99.90;;;;;;6183473;23;20037;-88
2021/10/05 09:01:20;;;;;;;14.32;1.90;;;15.40;99.90;;;;;;6183517;23;20058;-88
2021/10/05 09:03:50;;;;;;;18.92;2.55;;;15.30;99.90;;;;;;6183850;23;20001;-88
2021/10/05 09:06:17;;;;;;;26.60;3.58;;;15.30;99.90;;;;;;6156911;23;20450;-88
2021/10/05 09:08:45;;;;;;;20.73;2.53;;;15.30;99.90;;;;;;6183421;23;20029;-87
2021/10/05 09:11:12;;;;;;;21.13;3.08;;;15.40;99.90;;;;;;6183401;23;20319;-88
2021/10/05 09:13:42;;;;;;;26.95;3.70;;;15.50;99.90;;;;;;6183512;23;20445;-87
2021/10/05 09:16:19;;;;;;;22.23;3.72;;;15.80;99.90;;;;;;6157069;23;20008;-87
2021/10/05 09:19:07;;;;;;;29.98;5.25;;;16.10;99.90;;;;;;6183427;23;20005;-86
2021/10/05 09:21:39;;;;;;;37.70;4.95;;;16.20;99.90;;;;;;6183257;23;20063;-86
2021/10/05 09:24:07;;;;;;;23.83;3.35;;;16.30;99.90;;;;;;6183418;23;20084;-86
2021/10/05 09:26:35;;;;;;;23.10;4.07;;;16.30;99.90;;;;;;6183311;23;20001;-86
2021/10/05 09:29:12;;;;;;;30.13;3.72;;;16.50;99.90;;;;;;6183363;23;20369;-86
2021/10/05 09:31:54;;;;;;;21.10;2.90;;;17.00;99.90;;;;;;6182932;23;20092;-87
2021/10/05 09:34:39;;;;;;;25.88;4.28;;;17.10;99.90;;;;;;6156394;23;20341;-87
2021/10/05 09:37:07;;;;;;;25.48;3.65;;;16.50;99.90;;;;;;6182718;23;20422;-85
2021/10/05 09:39:59;;;;;;;28.90;4.20;;;15.70;99.90;;;;;;6182471;23;19997;-86
2021/10/05 09:42:36;;;;;;;29.88;4.07;;;15.00;99.90;;;;;;6176152;23;20016;-86
2021/10/05 09:45:16;;;;;;;26.95;3.53;;;14.90;99.90;;;;;;6183404;23;20108;-88
2021/10/05 09:47:47;;;;;;;26.98;3.28;;;14.80;99.90;;;;;;6183088;23;20084;-90
2021/10/05 09:50:24;;;;;;;28.90;3.60;;;14.70;99.90;;;;;;6183570;23;20007;-92
2021/10/05 09:53:06;;;;;;;23.05;2.97;;;14.80;99.90;;;;;;6157606;23;20009;-91
2021/10/05 09:55:35;;;;;;;20.70;2.63;;;14.90;99.90;;;;;;6150759;23;20051;-91
2021/10/05 09:58:01;;;;;;;15.52;2.47;;;15.20;99.90;;;;;;6160546;23;20085;-93
2021/10/05 10:00:30;;;;;;;14.52;2.17;;;15.50;99.90;;;;;;6142746;23;20017;-95
2021/10/05 10:02:56;;;;;;;16.98;3.40;;;16.00;99.90;;;;;;6159339;23;20009;-94
2021/10/05 10:05:23;;;;;;;16.05;2.53;;;16.30;99.90;;;;;;6158529;23;20009;-94
2021/10/05 10:07:51;;;;;;;15.38;2.10;;;16.40;99.90;;;;;;6157546;23;20505;-92
2021/10/05 10:10:20;;;;;;;15.80;2.33;;;16.50;99.90;;;;;;6183358;23;20057;-91
2021/10/05 10:12:50;;;;;;;14.25;2.05;;;16.60;99.90;;;;;;6157004;23;20450;-90
2021/10/05 10:15:18;;;;;;;15.35;1.90;;;16.60;99.90;;;;;;6183031;23;20442;-90
2021/10/05 10:17:45;;;;;;;17.45;2.55;;;16.60;99.90;;;;;;6182705;23;20001;-91
2021/10/05 10:20:23;;;;;;;14.13;2.00;;;16.70;99.90;;;;;;6182893;23;20000;-90
2021/10/05 10:22:49;;;;;;;15.05;2.63;;;16.50;99.90;;;;;;6182169;23;20004;-88
2021/10/05 10:25:33;;;;;;;16.73;1.98;;;16.40;99.90;;;;;;6156094;23;20062;-88
2021/10/05 10:28:11;;;;;;;18.05;2.85;;;16.40;99.90;;;;;;6182367;23;20011;-88
2021/10/05 10:30:51;;;;;;;22.38;3.60;;;16.50;99.90;;;;;;6182482;23;20083;-87
2021/10/05 10:33:18;;;;;;;17.52;2.80;;;16.70;99.90;;;;;;6182342;23;20001;-87
2021/10/05 10:35:52;;;;;;;23.63;3.08;;;16.80;99.90;;;;;;6180841;23;20144;-87
2021/10/05 10:38:23;;;;;;;19.40;3.03;;;17.00;99.90;;;;;;6182535;23;20047;-88
2021/10/05 10:40:48;;;;;;;17.63;2.70;;;17.00;99.90;;;;;;6182684;23;20076;-88
2021/10/05 10:43:17;;;;;;;22.92;3.50;;;17.10;99.90;;;;;;6182255;23;20025;-88
2021/10/05 10:45:55;;;;;;;23.02;2.75;;;17.40;99.90;;;;;;6182581;23;20012;-87
2021/10/05 10:48:35;;;;;;;24.00;3.55;;;17.60;99.90;;;;;;6181761;23;20455;-86
2021/10/05 10:51:13;;;;;;;14.98;2.50;;;17.60;99.90;;;;;;6155713;23;20021;-87
2021/10/05 10:53:41;;;;;;;17.08;2.38;;;17.40;99.90;;;;;;6182289;23;20001;-87
2021/10/05 10:56:07;;;;;;;18.80;2.88;;;17.30;99.90;;;;;;6182460;23;20052;-87
2021/10/05 10:58:45;;;;;;;19.23;2.88;;;17.20;99.90;;;;;;6182194;23;20001;-88
2021/10/05 11:01:15;;;;;;;22.80;3.58;;;17.20;99.90;;;;;;6182504;23;20084;-87
2021/10/05 11:03:41;;;;;;;17.83;2.53;;;17.30;99.90;;;;;;6155723;23;20037;-88
2021/10/05 11:06:17;;;;;;;18.17;2.10;;;17.20;99.90;;;;;;6155775;23;20012;-87
2021/10/05 11:08:54;;;;;;;14.23;2.30;;;17.20;99.90;;;;;;6156091;23;20087;-87
2021/10/05 11:11:30;;;;;;;14.57;2.42;;;17.30;99.90;;;;;;6155826;23;20020;-87
2021/10/05 11:13:57;;;;;;;20.30;2.38;;;17.40;99.90;;;;;;6155622;23;20453;-87
2021/10/05 11:16:23;;;;;;;13.77;2.42;;;17.40;99.90;;;;;;6182535;23;20027;-88
2021/10/05 11:19:11;;;;;;;16.98;2.83;;;17.40;99.90;;;;;;6182109;23;20482;-87
2021/10/05 11:21:40;;;;;;;16.48;2.30;;;17.40;99.90;;;;;;6182245;23;20005;-87
2021/10/05 11:24:06;;;;;;;16.55;2.50;;;17.50;99.90;;;;;;6155499;23;20338;-86
2021/10/05 11:26:36;;;;;;;15.10;2.50;;;17.70;99.90;;;;;;6182179;23;20337;-87
2021/10/05 11:29:03;;;;;;;15.70;2.65;;;17.80;99.90;;;;;;6182249;23;20063;-87
2021/10/05 11:31:44;;;;;;;18.95;2.60;;;17.80;99.90;;;;;;6155402;23;20078;-87
2021/10/05 11:34:10;;;;;;;16.38;3.65;;;17.90;99.90;;;;;;6182288;23;20008;-87
2021/10/05 11:36:37;;;;;;;18.02;2.70;;;18.00;99.90;;;;;;6180722;23;20017;-86
2021/10/05 11:39:04;;;;;;;16.20;2.38;;;18.30;99.90;;;;;;6155266;23;20005;-87
2021/10/05 11:41:43;;;;;;;21.58;2.92;;;18.60;99.90;;;;;;6182050;23;20001;-86
2021/10/05 11:44:21;;;;;;;17.35;3.03;;;18.50;99.90;;;;;;6182219;23;20056;-86
2021/10/05 11:47:01;;;;;;;22.63;3.67;;;18.10;99.90;;;;;;6155160;23;20020;-88
2021/10/05 11:49:30;;;;;;;18.65;3.78;;;17.70;99.90;;;;;;6181890;23;20458;-86
2021/10/05 11:51:56;;;;;;;17.25;2.40;;;17.40;99.90;;;;;;6182146;23;20396;-86
2021/10/05 11:54:28;;;;;;;24.40;2.72;;;17.00;99.90;;;;;;6182004;23;20001;-85
2021/10/05 11:56:57;;;;;;;20.95;2.75;;;17.00;99.90;;;;;;6181578;23;20005;-85
2021/10/05 11:59:31;;;;;;;15.25;2.00;;;17.20;99.90;;;;;;6155161;23;20055;-85
2021/10/05 12:02:10;;;;;;;10.73;2.00;;;17.60;99.90;;;;;;6155231;23;20009;-85
2021/10/05 12:04:39;;;;;;;14.70;2.33;;;18.00;99.90;;;;;;6183800;23;20056;-85
2021/10/05 12:07:15;;;;;;;20.55;2.33;;;17.90;99.90;;;;;;6183723;23;20323;-85
2021/10/05 12:09:41;;;;;;;13.88;2.13;;;17.80;99.90;;;;;;6184328;23;20010;-86
2021/10/05 12:12:10;;;;;;;17.75;2.47;;;17.60;99.90;;;;;;6183525;23;20504;-85
2021/10/05 12:14:41;;;;;;;16.73;2.22;;;17.50;99.90;;;;;;6157389;23;20076;-85
2021/10/05 12:17:15;;;;;;;17.05;2.38;;;17.70;99.90;;;;;;6156933;23;20517;-85
2021/10/05 12:20:09;;;;;;;19.35;2.92;;;17.80;99.90;;;;;;6183929;23;20008;-85
2021/10/05 12:22:47;;;;;;;16.92;2.78;;;17.80;99.90;;;;;;6179926;23;20007;-85
2021/10/05 12:25:17;;;;;;;16.17;2.42;;;17.90;99.90;;;;;;6184145;23;20009;-86
2021/10/05 12:27:47;;;;;;;17.52;2.30;;;17.90;99.90;;;;;;6157308;23;20036;-85
2021/10/05 12:30:22;;;;;;;16.13;2.05;;;18.00;99.90;;;;;;6184043;23;20063;-85
2021/10/05 12:32:52;;;;;;;14.18;2.13;;;18.10;99.90;;;;;;6156938;23;20009;-85
2021/10/05 12:35:21;;;;;;;13.93;2.08;;;18.10;99.90;;;;;;6183467;23;20001;-85
2021/10/05 12:37:56;;;;;;;16.13;2.55;;;17.90;99.90;;;;;;6183454;23;20008;-86
2021/10/05 12:40:22;;;;;;;16.38;2.83;;;17.70;99.90;;;;;;6157268;23;20028;-85
2021/10/05 12:42:51;;;;;;;12.40;1.90;;;17.90;99.90;;;;;;6183369;23;20008;-85
2021/10/05 12:45:21;;;;;;;13.50;1.98;;;18.00;99.90;;;;;;6183699;23;20008;-85
2021/10/05 12:47:50;;;;;;;18.05;2.22;;;18.20;99.90;;;;;;6156677;23;20024;-85
2021/10/05 12:50:28;;;;;;;13.75;2.78;;;18.30;99.90;;;;;;6183502;23;20064;-85
2021/10/05 12:52:56;;;;;;;13.77;2.60;;;18.30;99.90;;;;;;6183751;23;20067;-85
2021/10/05 12:55:23;;;;;;;12.13;1.80;;;18.30;99.90;;;;;;6183299;23;20374;-85
2021/10/05 12:57:49;;;;;;;17.60;2.75;;;18.40;99.90;;;;;;6157168;23;20012;-85
2021/10/05 13:00:17;;;;;;;18.95;2.92;;;18.50;99.90;;;;;;6183588;23;20001;-85
2021/10/05 13:02:42;;;;;;;12.57;1.98;;;18.60;99.90;;;;;;6183445;23;20016;-85
2021/10/05 13:05:08;;;;;;;14.35;3.03;;;18.60;99.90;;;;;;6183302;23;20076;-85
2021/10/05 13:07:34;;;;;;;11.63;1.95;;;18.30;99.90;;;;;;6183204;23;20005;-85
2021/10/05 13:09:59;;;;;;;11.68;1.80;;;18.40;99.90;;;;;;6183582;23;20005;-85
2021/10/05 13:12:25;;;;;;;12.55;2.25;;;18.40;99.90;;;;;;6183220;23;20017;-85
2021/10/05 13:14:51;;;;;;;16.55;2.33;;;18.30;99.90;;;;;;6156626;23;20044;-85
2021/10/05 13:17:16;;;;;;;11.48;2.05;;;18.10;99.90;;;;;;6183150;23;20027;-85